Time;durP1;ratioP1;P1;durP2;ratioP2;P2;SDS_P1;SDS_P2;PMS_P1;PMS_P2;Temp;Humidity;BMP_temperature;BMP_pressure;BME280_temperature;BME280_humidity;BME280_pressure;Samples;Min_cycle;Max_cycle;Signal;HPM_P1;HPM_P2
2022/01/16 00:00:40;;;;;;;60.67;28.67;;;2.40;99.90;;;;;;5089362;28;20756;-80
2022/01/16 00:05:54;;;;;;;63.17;28.93;;;2.30;99.90;;;;;;5094142;28;20075;-80
2022/01/16 00:08:21;;;;;;;66.23;31.10;;;2.40;99.90;;;;;;5095107;28;20063;-80
2022/01/16 00:10:47;;;;;;;64.07;33.37;;;2.30;99.90;;;;;;5097030;28;20387;-80
2022/01/16 00:13:12;;;;;;;78.83;37.43;;;2.30;99.90;;;;;;5095698;28;20036;-80
2022/01/16 00:15:38;;;;;;;72.30;32.40;;;2.30;99.90;;;;;;5095299;28;20048;-81
2022/01/16 00:20:31;;;;;;;75.60;35.40;;;2.30;99.90;;;;;;5095735;28;20141;-81
2022/01/16 00:22:57;;;;;;;80.27;35.57;;;2.20;99.90;;;;;;5077887;28;20387;-80
2022/01/16 00:25:23;;;;;;;71.23;35.00;;;2.20;99.90;;;;;;5095144;28;20042;-80
2022/01/16 00:27:49;;;;;;;74.70;33.50;;;2.20;99.90;;;;;;5094536;28;20032;-80
2022/01/16 00:30:16;;;;;;;63.83;33.30;;;2.20;99.90;;;;;;5095066;28;20119;-80
2022/01/16 00:32:42;;;;;;;72.10;34.23;;;2.20;99.90;;;;;;5094688;28;20043;-80
2022/01/16 00:35:11;;;;;;;79.27;33.73;;;2.20;99.90;;;;;;5094796;28;20119;-80
2022/01/16 00:37:37;;;;;;;71.70;33.40;;;2.20;99.90;;;;;;5094641;28;20395;-82
2022/01/16 00:40:03;;;;;;;73.97;32.50;;;2.20;99.90;;;;;;5094165;28;20051;-81
2022/01/16 00:42:29;;;;;;;80.10;36.10;;;2.10;99.90;;;;;;5093416;28;20040;-81
2022/01/16 00:44:55;;;;;;;74.10;35.93;;;2.10;99.90;;;;;;5091270;28;20372;-80
2022/01/16 00:47:20;;;;;;;64.10;31.77;;;2.20;99.90;;;;;;5077536;28;20039;-81
2022/01/16 00:49:46;;;;;;;60.47;30.57;;;2.10;99.90;;;;;;5093895;28;20119;-80
2022/01/16 00:52:11;;;;;;;63.20;31.63;;;2.10;99.90;;;;;;5093781;28;20043;-80
2022/01/16 00:54:37;;;;;;;72.40;35.20;;;2.10;99.90;;;;;;5094446;28;20054;-80
2022/01/16 00:57:04;;;;;;;61.90;29.90;;;2.10;99.90;;;;;;5087504;28;20040;-79
2022/01/16 00:59:29;;;;;;;65.13;30.93;;;2.00;99.90;;;;;;5093796;28;20031;-80
2022/01/16 01:01:55;;;;;;;70.67;31.63;;;2.00;99.90;;;;;;5095975;28;20561;-80
2022/01/16 01:04:20;;;;;;;66.43;29.33;;;1.90;99.90;;;;;;5076287;28;20115;-79
2022/01/16 01:06:49;;;;;;;69.07;32.07;;;1.90;99.90;;;;;;5092968;28;20062;-81
2022/01/16 01:09:15;;;;;;;67.53;33.47;;;1.90;99.90;;;;;;5094479;28;20051;-80
2022/01/16 01:11:43;;;;;;;69.90;35.20;;;1.90;99.90;;;;;;5092927;28;20032;-80
2022/01/16 01:14:27;;;;;;;66.23;31.57;;;1.90;99.90;;;;;;5093016;28;20040;-79
2022/01/16 01:17:00;;;;;;;64.93;32.13;;;1.80;99.90;;;;;;5092797;28;20040;-81
2022/01/16 01:19:34;;;;;;;70.67;33.10;;;1.80;99.90;;;;;;5093739;28;20456;-80
2022/01/16 01:22:01;;;;;;;68.63;33.57;;;1.90;99.90;;;;;;5093767;28;20115;-80
2022/01/16 01:24:29;;;;;;;69.13;34.50;;;1.80;99.90;;;;;;5094499;28;20036;-81
2022/01/16 01:27:08;;;;;;;66.73;34.63;;;1.80;99.90;;;;;;5093095;28;20048;-80
2022/01/16 01:29:35;;;;;;;71.93;34.83;;;1.80;99.90;;;;;;5092781;28;20379;-80
2022/01/16 01:32:01;;;;;;;67.10;31.17;;;1.70;99.90;;;;;;5093064;28;20087;-80
2022/01/16 01:34:27;;;;;;;63.73;32.53;;;1.80;99.90;;;;;;5092791;28;20036;-80
2022/01/16 01:36:53;;;;;;;70.97;33.50;;;1.70;99.90;;;;;;5092062;28;20036;-80
2022/01/16 01:39:20;;;;;;;77.73;39.17;;;1.70;99.90;;;;;;5093496;28;20032;-81
2022/01/16 01:41:49;;;;;;;69.23;33.73;;;1.70;99.90;;;;;;5092445;28;20403;-80
2022/01/16 01:52:27;;;;;;;62.93;30.93;;;1.60;99.90;;;;;;5093169;28;20083;-80
2022/01/16 01:54:53;;;;;;;69.03;32.53;;;1.50;99.90;;;;;;5092242;28;20090;-80
2022/01/16 01:57:19;;;;;;;73.63;36.07;;;1.50;99.90;;;;;;5093430;28;20078;-80
2022/01/16 01:59:44;;;;;;;69.57;33.00;;;1.50;99.90;;;;;;5091695;28;20483;-80
2022/01/16 02:02:10;;;;;;;77.27;36.93;;;1.50;99.90;;;;;;5091643;28;20040;-80
2022/01/16 02:04:36;;;;;;;64.03;31.20;;;1.50;99.90;;;;;;5091635;28;20081;-80
2022/01/16 02:07:02;;;;;;;67.27;30.87;;;1.50;99.90;;;;;;5091901;28;20032;-81
2022/01/16 02:09:28;;;;;;;57.60;30.93;;;1.50;99.90;;;;;;5091808;28;20087;-79
2022/01/16 02:11:53;;;;;;;58.93;27.37;;;1.50;99.90;;;;;;5093059;28;20040;-80
2022/01/16 02:14:46;;;;;;;59.73;27.37;;;1.50;99.90;;;;;;5092388;28;20100;-80
2022/01/16 02:28:42;;;;;;;84.00;37.53;;;1.40;99.90;;;;;;5104671;28;20395;-80
2022/01/16 02:31:16;;;;;;;101.33;47.73;;;1.40;99.90;;;;;;5104796;28;20047;-80
2022/01/16 02:34:56;;;;;;;81.87;39.77;;;1.40;99.90;;;;;;5101386;28;20032;-80
2022/01/16 02:36:53;;;;;;;80.93;36.30;;;1.50;99.90;;;;;;5082576;28;20355;-79
2022/01/16 02:39:25;;;;;;;82.63;38.30;;;1.50;99.90;;;;;;5092685;28;20081;-80
2022/01/16 02:41:53;;;;;;;91.03;37.40;;;1.50;99.90;;;;;;5092925;28;20040;-80
2022/01/16 02:46:54;;;;;;;90.37;40.17;;;1.50;99.90;;;;;;5091952;28;20044;-80
2022/01/16 02:49:23;;;;;;;97.40;42.33;;;1.60;99.90;;;;;;5093038;28;20063;-79
2022/01/16 02:51:54;;;;;;;112.40;48.50;;;1.60;99.90;;;;;;5091753;28;20123;-79
2022/01/16 02:54:21;;;;;;;112.63;50.37;;;1.60;99.90;;;;;;5092496;28;20107;-80
2022/01/16 02:56:48;;;;;;;118.33;48.50;;;1.60;99.90;;;;;;5091004;28;20075;-80
2022/01/16 02:59:15;;;;;;;119.40;52.13;;;1.60;99.90;;;;;;5091738;28;20047;-79
2022/01/16 03:01:41;;;;;;;109.77;46.77;;;1.60;99.90;;;;;;5091304;28;20118;-80
2022/01/16 03:04:07;;;;;;;132.20;51.13;;;1.60;99.90;;;;;;5091529;28;20105;-81
2022/01/16 03:06:33;;;;;;;115.40;52.40;;;1.60;99.90;;;;;;5091722;28;20059;-80
2022/01/16 03:08:58;;;;;;;121.23;53.37;;;1.60;99.90;;;;;;5091791;28;20071;-80
2022/01/16 03:13:55;;;;;;;121.67;51.20;;;1.60;99.90;;;;;;5090972;28;20406;-80
2022/01/16 03:16:23;;;;;;;120.57;52.03;;;1.60;99.90;;;;;;5090199;28;20036;-80
2022/01/16 03:24:19;;;;;;;131.55;55.08;;;1.60;99.90;;;;;;5090024;28;20465;-79
2022/01/16 03:26:45;;;;;;;129.70;52.13;;;1.60;99.90;;;;;;5090076;28;20031;-80
2022/01/16 03:29:10;;;;;;;142.70;58.53;;;1.60;99.90;;;;;;5090402;28;20414;-80
2022/01/16 03:31:36;;;;;;;162.97;62.57;;;1.60;99.90;;;;;;5089459;28;20096;-80
2022/01/16 03:34:02;;;;;;;168.87;66.27;;;1.60;99.90;;;;;;5089897;28;20119;-79
2022/01/16 03:36:27;;;;;;;168.60;64.50;;;1.60;99.90;;;;;;5088883;28;20123;-80
2022/01/16 03:38:53;;;;;;;169.50;66.50;;;1.60;99.90;;;;;;5090345;28;20530;-79
2022/01/16 03:41:19;;;;;;;169.10;63.27;;;1.70;99.90;;;;;;5090494;28;20036;-80
2022/01/16 03:43:44;;;;;;;133.37;59.07;;;1.70;99.90;;;;;;5091269;28;20072;-80
2022/01/16 03:46:10;;;;;;;153.17;57.67;;;1.70;99.90;;;;;;5090826;28;20111;-80
2022/01/16 03:48:36;;;;;;;176.20;66.83;;;1.70;99.90;;;;;;5091099;28;20128;-80
2022/01/16 03:51:01;;;;;;;148.70;61.50;;;1.70;99.90;;;;;;5090702;28;20036;-80
2022/01/16 03:53:27;;;;;;;142.20;54.57;;;1.70;99.90;;;;;;5091106;28;20035;-80
2022/01/16 03:55:52;;;;;;;154.27;58.00;;;1.70;99.90;;;;;;5091544;28;20048;-80
2022/01/16 03:58:18;;;;;;;138.23;59.13;;;1.70;99.90;;;;;;5091677;28;20122;-80
2022/01/16 04:00:44;;;;;;;151.80;60.63;;;1.80;99.90;;;;;;5092556;28;20506;-80
2022/01/16 04:03:11;;;;;;;142.70;59.13;;;1.70;99.90;;;;;;5086765;28;20046;-81
2022/01/16 04:05:37;;;;;;;149.97;62.33;;;1.70;99.90;;;;;;5093149;28;20042;-81
2022/01/16 04:08:03;;;;;;;162.47;61.03;;;1.80;99.90;;;;;;5091290;28;20123;-80
2022/01/16 04:10:29;;;;;;;144.70;59.60;;;1.80;99.90;;;;;;5091754;28;20054;-79
2022/01/16 04:12:55;;;;;;;153.13;62.70;;;1.80;99.90;;;;;;5090856;28;20093;-80
2022/01/16 04:17:50;;;;;;;159.70;62.90;;;1.80;99.90;;;;;;5091156;28;20062;-81
2022/01/16 04:20:16;;;;;;;150.60;54.90;;;1.80;99.90;;;;;;5090689;28;20036;-82
2022/01/16 04:22:45;;;;;;;171.03;64.67;;;1.90;99.90;;;;;;5089764;28;20154;-82
2022/01/16 04:25:11;;;;;;;146.73;57.30;;;1.90;99.90;;;;;;5090542;28;20040;-82
2022/01/16 04:27:37;;;;;;;155.37;59.43;;;1.90;99.90;;;;;;5089594;28;20092;-80
2022/01/16 04:30:04;;;;;;;141.37;57.23;;;1.90;99.90;;;;;;5090441;28;20517;-81
2022/01/16 04:32:30;;;;;;;151.03;58.37;;;1.90;99.90;;;;;;5073020;28;20067;-82
2022/01/16 04:34:55;;;;;;;166.70;62.37;;;2.00;99.90;;;;;;5089980;28;20062;-82
2022/01/16 04:37:21;;;;;;;138.87;60.77;;;2.00;99.90;;;;;;5090549;28;20036;-81
2022/01/16 04:39:51;;;;;;;160.77;57.27;;;2.00;99.90;;;;;;5089463;28;20605;-82
2022/01/16 04:45:02;;;;;;;156.00;60.17;;;2.10;99.90;;;;;;5089804;28;20418;-82
2022/01/16 04:47:29;;;;;;;132.43;54.67;;;2.10;99.90;;;;;;5092916;28;20044;-82
2022/01/16 04:49:54;;;;;;;141.10;57.97;;;2.10;99.90;;;;;;5094226;28;20088;-83
2022/01/16 04:52:20;;;;;;;161.27;63.53;;;2.10;99.90;;;;;;5094043;28;20036;-82
2022/01/16 04:54:45;;;;;;;173.47;64.50;;;2.20;99.90;;;;;;5092816;28;20051;-83
2022/01/16 04:57:13;;;;;;;184.87;69.00;;;2.20;99.90;;;;;;5076737;28;20040;-83
2022/01/16 04:59:39;;;;;;;154.53;62.57;;;2.20;99.90;;;;;;5093157;28;20097;-83
2022/01/16 05:02:05;;;;;;;150.10;60.93;;;2.20;99.90;;;;;;5093708;28;20048;-82
2022/01/16 05:04:30;;;;;;;157.37;62.60;;;2.20;99.90;;;;;;5087985;28;20434;-82
2022/01/16 05:06:56;;;;;;;147.63;60.57;;;2.40;99.90;;;;;;5092997;28;20039;-83
2022/01/16 05:09:22;;;;;;;149.20;60.17;;;2.30;99.90;;;;;;5092916;28;20032;-83
2022/01/16 05:11:54;;;;;;;157.43;62.50;;;2.30;99.90;;;;;;5093504;28;20551;-83
2022/01/16 05:17:04;;;;;;;142.20;60.07;;;2.40;99.90;;;;;;5092917;28;20868;-82
2022/01/16 05:19:29;;;;;;;157.43;59.30;;;2.40;99.90;;;;;;5078473;28;20040;-82
2022/01/16 05:21:55;;;;;;;159.50;61.63;;;2.50;99.90;;;;;;5092849;28;20080;-82
2022/01/16 05:24:23;;;;;;;162.77;61.53;;;2.50;99.90;;;;;;5093618;28;20035;-83
2022/01/16 05:26:48;;;;;;;142.17;59.30;;;2.50;99.90;;;;;;5092359;28;20040;-83
2022/01/16 05:29:14;;;;;;;154.50;63.17;;;2.50;99.90;;;;;;5093671;28;20043;-82
2022/01/16 05:31:44;;;;;;;148.03;61.93;;;2.50;99.90;;;;;;5075699;28;20044;-82
2022/01/16 05:34:11;;;;;;;145.13;60.87;;;2.60;99.90;;;;;;5092278;28;20371;-83
2022/01/16 05:36:36;;;;;;;149.03;60.47;;;2.50;99.90;;;;;;5091983;28;20083;-82
2022/01/16 05:39:02;;;;;;;147.80;60.87;;;2.60;99.90;;;;;;5092971;28;20040;-83
2022/01/16 05:41:28;;;;;;;147.40;60.47;;;2.60;99.90;;;;;;5074988;28;20036;-82
2022/01/16 05:43:53;;;;;;;159.53;60.13;;;2.60;99.90;;;;;;5092041;28;20410;-83
2022/01/16 05:46:19;;;;;;;158.07;60.53;;;2.60;99.90;;;;;;5074866;28;20067;-82
2022/01/16 05:48:45;;;;;;;152.83;58.60;;;2.70;99.90;;;;;;5092371;28;20032;-83
2022/01/16 05:51:10;;;;;;;137.23;57.93;;;2.70;99.90;;;;;;5075575;28;20039;-82
2022/01/16 05:53:37;;;;;;;145.40;61.63;;;2.70;99.90;;;;;;5092338;28;20444;-83
2022/01/16 05:56:03;;;;;;;143.60;58.80;;;2.70;99.90;;;;;;5092456;28;20478;-82
2022/01/16 05:58:29;;;;;;;145.27;58.60;;;2.70;99.90;;;;;;5091544;28;20036;-84
2022/01/16 06:00:54;;;;;;;132.03;52.23;;;2.70;99.90;;;;;;5092184;28;20261;-83
2022/01/16 06:03:21;;;;;;;131.97;56.20;;;2.70;99.90;;;;;;5091922;28;20560;-83
2022/01/16 06:05:47;;;;;;;135.40;52.73;;;2.70;99.90;;;;;;5091614;28;20036;-83
2022/01/16 06:08:13;;;;;;;123.03;55.87;;;2.80;99.90;;;;;;5091602;28;20034;-83
2022/01/16 06:10:39;;;;;;;133.85;56.45;;;2.80;99.90;;;;;;5091952;28;20080;-83
2022/01/16 06:13:06;;;;;;;138.13;53.63;;;2.80;99.90;;;;;;5091562;28;20044;-81
2022/01/16 06:15:32;;;;;;;118.00;51.83;;;2.80;99.90;;;;;;5089888;28;20039;-83
2022/01/16 06:18:00;;;;;;;116.40;50.10;;;2.90;99.90;;;;;;5072628;28;20079;-83
2022/01/16 06:20:26;;;;;;;127.20;54.80;;;2.90;99.90;;;;;;5092171;28;20040;-81
2022/01/16 06:22:55;;;;;;;132.55;55.28;;;2.90;99.90;;;;;;5091383;28;20093;-82
2022/01/16 06:25:22;;;;;;;118.78;53.30;;;2.90;99.90;;;;;;5091976;28;20111;-83
2022/01/16 06:27:48;;;;;;;116.60;51.70;;;3.00;99.90;;;;;;5090812;28;20044;-81
2022/01/16 06:30:13;;;;;;;114.43;48.33;;;3.00;99.90;;;;;;5091411;28;20071;-83
2022/01/16 06:32:39;;;;;;;120.13;50.50;;;2.90;99.90;;;;;;5090902;28;20062;-83
2022/01/16 06:35:07;;;;;;;107.53;48.67;;;3.00;99.90;;;;;;5074442;28;20038;-82
2022/01/16 06:37:32;;;;;;;103.63;46.60;;;3.00;99.90;;;;;;5090548;28;20047;-82
2022/01/16 06:39:58;;;;;;;115.75;48.90;;;3.00;99.90;;;;;;5091376;28;20458;-83
2022/01/16 06:42:23;;;;;;;120.90;52.67;;;3.00;99.90;;;;;;5091905;28;20028;-82
2022/01/16 06:44:50;;;;;;;123.27;53.80;;;3.00;99.90;;;;;;5095253;28;20031;-81
2022/01/16 06:47:16;;;;;;;110.57;48.23;;;3.00;99.90;;;;;;5079472;28;20093;-82
2022/01/16 06:49:41;;;;;;;120.53;54.03;;;3.00;99.90;;;;;;5098343;28;20028;-81
2022/01/16 06:52:07;;;;;;;129.83;51.50;;;3.10;99.90;;;;;;5099108;28;20044;-82
2022/01/16 06:54:33;;;;;;;125.70;50.03;;;3.10;99.90;;;;;;5098188;28;20051;-80
2022/01/16 06:56:58;;;;;;;123.67;54.97;;;3.10;99.90;;;;;;5097914;28;20040;-82
2022/01/16 06:59:24;;;;;;;128.40;53.37;;;3.10;99.90;;;;;;5094866;28;20043;-82
2022/01/16 07:01:50;;;;;;;138.33;56.47;;;3.10;99.90;;;;;;5095167;28;20043;-82
2022/01/16 07:04:16;;;;;;;124.70;55.23;;;3.10;99.90;;;;;;5094438;28;20040;-80
2022/01/16 07:06:41;;;;;;;131.77;53.85;;;3.10;99.90;;;;;;5087022;28;20028;-80
2022/01/16 07:09:07;;;;;;;134.70;56.03;;;3.20;99.90;;;;;;5094553;28;20413;-82
2022/01/16 07:11:32;;;;;;;132.10;51.80;;;3.20;99.90;;;;;;5092682;28;20057;-83
2022/01/16 07:13:58;;;;;;;125.22;51.88;;;3.20;99.90;;;;;;5094072;28;20042;-81
2022/01/16 07:16:23;;;;;;;135.00;56.20;;;3.20;99.90;;;;;;5093346;28;20044;-82
2022/01/16 07:18:49;;;;;;;135.15;57.50;;;3.20;99.90;;;;;;5095105;28;20051;-81
2022/01/16 07:21:15;;;;;;;134.50;52.55;;;3.30;99.90;;;;;;5092177;28;20126;-82
2022/01/16 07:23:45;;;;;;;127.85;56.67;;;3.30;99.90;;;;;;5093072;28;20036;-82
2022/01/16 07:26:15;;;;;;;147.15;59.05;;;3.30;99.90;;;;;;5092849;28;20040;-83
2022/01/16 07:28:40;;;;;;;139.05;55.78;;;3.30;99.90;;;;;;5075418;28;20085;-81
2022/01/16 07:31:06;;;;;;;133.05;60.13;;;3.40;99.90;;;;;;5091924;28;20039;-83
2022/01/16 07:33:32;;;;;;;144.52;58.72;;;3.40;99.90;;;;;;5092362;28;20514;-83
2022/01/16 07:35:57;;;;;;;143.95;59.15;;;3.40;99.90;;;;;;5091840;28;20122;-83
2022/01/16 07:38:23;;;;;;;134.02;58.08;;;3.40;99.90;;;;;;5092059;28;20075;-83
2022/01/16 07:40:49;;;;;;;134.45;54.03;;;3.40;99.90;;;;;;5091764;28;20047;-83
2022/01/16 07:43:14;;;;;;;134.50;55.78;;;3.50;99.90;;;;;;5091811;28;20036;-82
2022/01/16 07:45:40;;;;;;;130.77;55.97;;;3.50;99.90;;;;;;5092161;28;20048;-83
2022/01/16 07:48:07;;;;;;;134.48;56.90;;;3.50;99.90;;;;;;5091512;28;20040;-83
2022/01/16 07:50:33;;;;;;;137.80;57.28;;;3.50;99.90;;;;;;5074784;28;20075;-83
2022/01/16 07:52:59;;;;;;;129.73;57.10;;;3.50;99.90;;;;;;5092486;28;20040;-83
2022/01/16 07:55:26;;;;;;;143.63;59.72;;;3.50;99.90;;;;;;5075932;28;20454;-83
2022/01/16 07:57:53;;;;;;;130.90;56.70;;;3.60;99.90;;;;;;5091421;28;20048;-83
2022/01/16 08:00:20;;;;;;;138.50;56.85;;;3.60;99.90;;;;;;5092364;28;20044;-83
2022/01/16 08:02:46;;;;;;;129.88;56.28;;;3.60;99.90;;;;;;5091091;28;20406;-83
2022/01/16 08:05:12;;;;;;;140.82;55.13;;;3.60;99.90;;;;;;5090953;28;20036;-84
2022/01/16 08:07:38;;;;;;;132.90;57.33;;;3.70;99.90;;;;;;5099710;28;20031;-84
2022/01/16 08:10:04;;;;;;;126.45;53.45;;;3.70;99.90;;;;;;5101955;28;20183;-83
2022/01/16 08:12:29;;;;;;;128.30;52.22;;;3.80;99.90;;;;;;5103214;28;20043;-83
2022/01/16 08:14:56;;;;;;;122.53;52.85;;;3.80;99.90;;;;;;5102924;28;20418;-83
2022/01/16 08:17:21;;;;;;;116.72;51.20;;;3.80;99.90;;;;;;5106535;28;20047;-83
2022/01/16 08:19:47;;;;;;;126.25;54.22;;;3.80;99.90;;;;;;5107205;28;20116;-81
2022/01/16 08:22:12;;;;;;;128.65;55.67;;;3.90;99.90;;;;;;5109650;28;20065;-83
2022/01/16 08:24:38;;;;;;;111.45;49.63;;;3.90;99.90;;;;;;5093851;28;20036;-83
2022/01/16 08:27:04;;;;;;;116.97;53.10;;;3.90;99.90;;;;;;5090291;28;20055;-83
2022/01/16 08:29:29;;;;;;;117.75;51.03;;;4.00;99.90;;;;;;5099252;28;20061;-83
2022/01/16 08:31:55;;;;;;;116.07;49.58;;;4.10;99.90;;;;;;5098603;28;20040;-81
2022/01/16 08:34:20;;;;;;;115.60;50.30;;;4.10;99.90;;;;;;5098022;28;20039;-83
2022/01/16 08:36:46;;;;;;;120.50;50.35;;;4.20;99.90;;;;;;5098096;28;20134;-83
2022/01/16 08:39:14;;;;;;;106.72;44.90;;;4.20;99.90;;;;;;5096519;28;20080;-83
2022/01/16 08:41:40;;;;;;;95.55;43.55;;;4.30;99.90;;;;;;5088369;28;20402;-83
2022/01/16 08:44:06;;;;;;;102.35;50.30;;;4.30;99.90;;;;;;5096088;28;20042;-82
2022/01/16 08:46:32;;;;;;;103.47;47.63;;;4.40;99.90;;;;;;5095347;28;20048;-83
2022/01/16 08:48:58;;;;;;;115.13;51.47;;;4.40;99.90;;;;;;5095906;28;20036;-81
2022/01/16 08:51:23;;;;;;;113.13;47.58;;;4.40;99.90;;;;;;5095877;28;20043;-83
2022/01/16 08:53:49;;;;;;;112.97;48.40;;;4.50;99.90;;;;;;5095424;28;20089;-84
2022/01/16 08:56:15;;;;;;;114.38;48.97;;;4.50;99.90;;;;;;5095560;28;20028;-83
2022/01/16 08:58:41;;;;;;;113.85;52.20;;;4.50;99.90;;;;;;5078731;28;20038;-83
2022/01/16 09:01:07;;;;;;;108.82;48.33;;;4.50;99.90;;;;;;5095600;28;20437;-83
2022/01/16 09:03:33;;;;;;;102.07;47.78;;;4.60;99.90;;;;;;5095277;28;20149;-83
2022/01/16 09:05:59;;;;;;;102.63;47.55;;;4.60;99.90;;;;;;5094744;28;20089;-82
2022/01/16 09:08:25;;;;;;;93.43;44.00;;;4.70;99.90;;;;;;5095433;28;20032;-83
2022/01/16 09:10:51;;;;;;;101.57;46.33;;;4.70;99.90;;;;;;5094543;28;20047;-81
2022/01/16 09:13:17;;;;;;;104.07;47.78;;;4.70;99.90;;;;;;5094855;28;20119;-83
2022/01/16 09:15:49;;;;;;;95.45;46.55;;;4.70;99.90;;;;;;5077829;28;20043;-81
2022/01/16 09:18:16;;;;;;;88.00;43.20;;;4.80;99.90;;;;;;5092345;28;20398;-83
2022/01/16 09:20:42;;;;;;;85.22;42.95;;;4.80;99.90;;;;;;5094431;28;20070;-83
2022/01/16 09:23:09;;;;;;;94.25;45.20;;;4.90;99.90;;;;;;5094237;28;20096;-83
2022/01/16 09:25:34;;;;;;;87.65;42.80;;;4.90;99.90;;;;;;5094296;28;20043;-83
2022/01/16 09:28:01;;;;;;;90.88;41.42;;;5.00;99.90;;;;;;5094054;28;20379;-83
2022/01/16 09:30:27;;;;;;;89.82;42.95;;;5.10;99.90;;;;;;5077530;28;20445;-83
2022/01/16 09:32:53;;;;;;;202.00;113.50;;;5.10;99.90;;;;;;5092940;28;20052;-83
2022/01/16 09:35:18;;;;;;;206.40;111.40;;;5.10;99.90;;;;;;5076291;28;20039;-83
2022/01/16 09:37:44;;;;;;;83.00;40.95;;;5.20;99.90;;;;;;5093702;28;20495;-81
2022/01/16 09:40:12;;;;;;;84.68;41.60;;;5.30;99.90;;;;;;5094526;28;20147;-84
2022/01/16 09:42:39;;;;;;;340.60;202.07;;;5.40;99.90;;;;;;5085744;28;20407;-83
2022/01/16 09:45:08;;;;;;;88.22;45.13;;;5.50;99.90;;;;;;5094402;28;20036;-83
2022/01/16 09:47:34;;;;;;;77.15;39.17;;;5.50;99.90;;;;;;5076996;28;20028;-83
2022/01/16 09:49:59;;;;;;;80.97;35.40;;;5.60;99.90;;;;;;5094467;28;20050;-83
2022/01/16 09:52:26;;;;;;;72.10;38.00;;;5.70;99.90;;;;;;5076742;28;20051;-83
2022/01/16 09:54:51;;;;;;;70.05;36.55;;;5.70;99.90;;;;;;5092845;28;20044;-84
2022/01/16 09:57:18;;;;;;;64.85;33.00;;;5.70;99.90;;;;;;5093125;28;20097;-82
2022/01/16 09:59:45;;;;;;;65.45;34.17;;;5.80;99.90;;;;;;5093482;28;20032;-84
2022/01/16 10:02:11;;;;;;;61.25;32.67;;;5.80;99.90;;;;;;5093821;28;20036;-83
2022/01/16 10:04:43;;;;;;;60.53;32.03;;;5.90;99.90;;;;;;5076884;28;20039;-82
2022/01/16 10:07:18;;;;;;;54.85;30.63;;;5.90;99.90;;;;;;5084565;28;20118;-83
2022/01/16 10:10:10;;;;;;;58.60;32.47;;;6.00;99.90;;;;;;5093928;28;20063;-82
2022/01/16 10:12:41;;;;;;;55.00;29.17;;;6.00;99.90;;;;;;5071392;28;20048;-81
2022/01/16 10:15:25;;;;;;;61.35;29.00;;;6.00;99.90;;;;;;5098704;28;20068;-80
2022/01/16 10:17:56;;;;;;;62.20;33.63;;;6.10;99.90;;;;;;5098063;28;20051;-81
2022/01/16 10:20:23;;;;;;;56.03;30.92;;;6.10;99.90;;;;;;5097629;28;20366;-81
2022/01/16 10:22:54;;;;;;;55.00;29.05;;;6.20;99.90;;;;;;5096396;28;20040;-81
2022/01/16 10:25:41;;;;;;;55.70;29.38;;;6.20;99.90;;;;;;5089223;28;20057;-81
2022/01/16 10:28:21;;;;;;;54.10;29.05;;;6.30;99.90;;;;;;5095579;28;20385;-80
2022/01/16 10:30:55;;;;;;;53.13;28.98;;;6.30;99.90;;;;;;5095090;28;20040;-80
2022/01/16 10:33:23;;;;;;;50.72;29.67;;;6.30;99.90;;;;;;5094559;28;20040;-81
2022/01/16 10:35:51;;;;;;;95.85;50.40;;;6.20;99.90;;;;;;5095951;28;20043;-82
2022/01/16 10:38:24;;;;;;;42.08;23.38;;;6.40;99.90;;;;;;5098181;28;20141;-80
2022/01/16 10:40:51;;;;;;;48.83;28.45;;;6.40;99.90;;;;;;5097501;28;20046;-81
2022/01/16 10:43:35;;;;;;;46.05;27.17;;;6.40;99.90;;;;;;5096944;28;20455;-81
2022/01/16 10:46:01;;;;;;;49.10;28.98;;;6.40;99.90;;;;;;5095781;28;20079;-80
2022/01/16 10:48:27;;;;;;;59.97;28.65;;;6.50;99.90;;;;;;5084992;28;20552;-81
2022/01/16 10:50:53;;;;;;;41.75;24.00;;;6.50;99.90;;;;;;5093832;28;20119;-80
2022/01/16 10:53:24;;;;;;;47.92;26.38;;;6.60;99.90;;;;;;5095994;28;20063;-80
2022/01/16 10:55:52;;;;;;;42.35;24.45;;;6.60;99.90;;;;;;5099068;28;20064;-81
2022/01/16 10:58:28;;;;;;;44.70;24.35;;;6.60;99.90;;;;;;5094761;28;20055;-81
2022/01/16 11:01:00;;;;;;;35.47;23.13;;;6.60;99.90;;;;;;5096653;28;20046;-82
2022/01/16 11:03:28;;;;;;;41.60;24.48;;;6.60;99.90;;;;;;5078608;28;20028;-80
2022/01/16 11:05:55;;;;;;;42.00;25.23;;;6.60;99.90;;;;;;5096252;28;20134;-80
2022/01/16 11:08:26;;;;;;;45.72;24.83;;;6.60;99.90;;;;;;5095720;28;20036;-80
2022/01/16 11:10:55;;;;;;;37.03;21.38;;;6.60;99.90;;;;;;5077452;28;20051;-81
2022/01/16 11:13:23;;;;;;;53.15;25.73;;;6.60;99.90;;;;;;5095437;28;20085;-81
2022/01/16 11:15:53;;;;;;;41.58;21.67;;;6.60;99.90;;;;;;5095377;28;20441;-80
2022/01/16 11:18:21;;;;;;;35.72;21.52;;;6.60;99.90;;;;;;5095608;28;20097;-80
2022/01/16 11:21:08;;;;;;;37.83;23.48;;;6.70;99.90;;;;;;5096382;28;20044;-81
2022/01/16 11:24:11;;;;;;;44.65;22.95;;;6.70;99.90;;;;;;5097035;28;20051;-81
2022/01/16 11:26:35;;;;;;;41.70;23.50;;;6.70;99.90;;;;;;5096191;28;20048;-81
2022/01/16 11:29:01;;;;;;;36.60;20.92;;;6.70;99.90;;;;;;5095543;28;20032;-81
2022/01/16 11:31:27;;;;;;;44.05;23.77;;;6.70;99.90;;;;;;5078132;28;20032;-80
2022/01/16 11:33:53;;;;;;;42.30;19.38;;;6.70;99.90;;;;;;5095309;28;20032;-79
2022/01/16 11:36:25;;;;;;;32.28;20.48;;;6.70;99.90;;;;;;5093627;28;20120;-80
2022/01/16 11:39:03;;;;;;;34.33;20.83;;;6.70;99.90;;;;;;5093629;28;20075;-80
2022/01/16 11:41:33;;;;;;;35.65;19.08;;;6.70;99.90;;;;;;5094083;28;20437;-80
2022/01/16 11:44:01;;;;;;;36.75;19.67;;;6.70;99.90;;;;;;5094880;28;20039;-80
2022/01/16 11:46:29;;;;;;;33.72;18.98;;;6.70;99.90;;;;;;5093767;28;20036;-79
2022/01/16 11:49:01;;;;;;;31.52;18.05;;;6.70;99.90;;;;;;5077482;28;20115;-80
2022/01/16 11:51:39;;;;;;;26.77;14.00;;;6.70;99.90;;;;;;5093890;28;20117;-80
2022/01/16 11:54:10;;;;;;;27.77;16.83;;;6.70;99.90;;;;;;5094113;28;20060;-81
2022/01/16 11:56:42;;;;;;;23.65;14.75;;;6.70;99.90;;;;;;5094680;28;20040;-80
2022/01/16 11:59:18;;;;;;;37.55;17.70;;;6.70;99.90;;;;;;5098537;28;20051;-80
2022/01/16 12:01:52;;;;;;;26.13;13.55;;;6.80;99.90;;;;;;5097860;28;20123;-80
2022/01/16 12:04:30;;;;;;;26.93;13.87;;;6.80;99.90;;;;;;5098412;28;20476;-81
2022/01/16 12:07:04;;;;;;;21.90;13.35;;;6.80;99.90;;;;;;5097570;28;20040;-81
2022/01/16 12:12:16;;;;;;;22.75;13.05;;;6.80;99.90;;;;;;5097674;28;20130;-80
2022/01/16 12:14:48;;;;;;;23.73;13.63;;;6.80;99.90;;;;;;5098251;28;20051;-81
2022/01/16 12:17:29;;;;;;;23.00;11.05;;;6.90;99.90;;;;;;5081462;28;20572;-81
2022/01/16 12:19:59;;;;;;;13.63;9.38;;;6.90;99.90;;;;;;5081818;28;20036;-81
2022/01/16 12:22:44;;;;;;;20.23;10.60;;;6.90;99.90;;;;;;5097210;28;20036;-81
2022/01/16 12:25:28;;;;;;;19.67;10.85;;;7.00;99.90;;;;;;5098535;28;20060;-80
2022/01/16 12:27:55;;;;;;;21.95;10.10;;;6.90;99.90;;;;;;5081029;28;20036;-80
2022/01/16 12:30:44;;;;;;;20.88;10.65;;;6.90;99.90;;;;;;5098387;28;20494;-80
2022/01/16 12:33:20;;;;;;;17.55;9.20;;;6.90;99.90;;;;;;5097918;28;20122;-81
2022/01/16 12:35:55;;;;;;;14.75;8.90;;;7.00;99.90;;;;;;5098179;28;20109;-81
2022/01/16 12:38:33;;;;;;;18.95;10.65;;;7.00;99.90;;;;;;5098003;28;20055;-81
2022/01/16 12:40:59;;;;;;;28.58;10.95;;;7.00;99.90;;;;;;5097618;28;20071;-80
2022/01/16 12:43:29;;;;;;;23.77;12.23;;;7.00;99.90;;;;;;5097763;28;20059;-81
2022/01/16 12:45:55;;;;;;;21.45;9.98;;;7.00;99.90;;;;;;5097859;28;20498;-81
2022/01/16 12:48:21;;;;;;;15.70;8.65;;;7.00;99.90;;;;;;5098407;28;20036;-81
2022/01/16 12:50:49;;;;;;;20.25;11.23;;;7.00;99.90;;;;;;5097423;28;20044;-81
2022/01/16 12:53:41;;;;;;;21.30;9.50;;;7.00;99.90;;;;;;5097847;28;20051;-81
2022/01/16 12:56:16;;;;;;;20.52;10.15;;;7.00;99.90;;;;;;5098112;28;20533;-81
2022/01/16 12:58:41;;;;;;;16.40;10.05;;;7.00;99.90;;;;;;5096393;28;20128;-81
2022/01/16 13:01:07;;;;;;;20.45;10.68;;;7.00;99.90;;;;;;5098320;28;20044;-81
2022/01/16 13:03:35;;;;;;;18.23;11.32;;;7.00;99.90;;;;;;5096996;28;20055;-80
2022/01/16 13:06:22;;;;;;;14.15;9.18;;;7.00;99.90;;;;;;5098030;28;20089;-81
2022/01/16 13:08:51;;;;;;;22.30;9.73;;;7.00;99.90;;;;;;5096317;28;20119;-82
2022/01/16 13:11:16;;;;;;;16.63;8.43;;;7.00;99.90;;;;;;5097676;28;20036;-81
2022/01/16 13:13:42;;;;;;;21.67;10.98;;;7.00;99.90;;;;;;5080813;28;20044;-82
2022/01/16 13:16:41;;;;;;;14.18;8.88;;;7.10;99.90;;;;;;5098225;28;20051;-82
2022/01/16 13:19:08;;;;;;;23.70;8.90;;;7.10;99.90;;;;;;5074111;28;20070;-81
2022/01/16 13:21:48;;;;;;;46.85;25.85;;;7.10;99.90;;;;;;5098630;28;20062;-81
2022/01/16 13:24:27;;;;;;;19.52;8.52;;;7.10;99.90;;;;;;5098476;28;20062;-81